sensor_id;sensor_type;location;lat;lon;timestamp;temperature;humidity
40287;DHT22;25998;46.604;13.610;2023-07-13T00:03:59;20.80;99.90
40287;DHT22;25998;46.604;13.610;2023-07-13T00:07:09;20.80;99.90
40287;DHT22;25998;46.604;13.610;2023-07-13T00:10:21;20.30;99.90
40287;DHT22;25998;46.604;13.610;2023-07-13T00:29:29;17.80;99.90
40287;DHT22;25998;46.604;13.610;2023-07-13T00:32:40;17.70;99.90
40287;DHT22;25998;46.604;13.610;2023-07-13T00:35:51;18.00;99.90
40287;DHT22;25998;46.604;13.610;2023-07-13T00:39:02;18.30;99.90
40287;DHT22;25998;46.604;13.610;2023-07-13T00:42:14;18.50;99.90
40287;DHT22;25998;46.604;13.610;2023-07-13T00:48:37;18.60;99.90
40287;DHT22;25998;46.604;13.610;2023-07-13T00:51:51;18.60;99.90
40287;DHT22;25998;46.604;13.610;2023-07-13T00:55:03;18.60;99.90
40287;DHT22;25998;46.604;13.610;2023-07-13T00:58:15;18.50;99.90
40287;DHT22;25998;46.604;13.610;2023-07-13T01:01:26;18.70;99.90
40287;DHT22;25998;46.604;13.610;2023-07-13T01:04:37;18.80;99.90
40287;DHT22;25998;46.604;13.610;2023-07-13T01:07:51;18.80;99.90
40287;DHT22;25998;46.604;13.610;2023-07-13T01:11:02;18.80;99.90
40287;DHT22;25998;46.604;13.610;2023-07-13T01:14:13;18.80;99.90
40287;DHT22;25998;46.604;13.610;2023-07-13T01:17:24;18.90;99.90
40287;DHT22;25998;46.604;13.610;2023-07-13T01:20:36;18.90;99.90
40287;DHT22;25998;46.604;13.610;2023-07-13T01:23:47;18.80;99.90
40287;DHT22;25998;46.604;13.610;2023-07-13T01:26:58;18.90;99.90
40287;DHT22;25998;46.604;13.610;2023-07-13T01:30:10;18.90;99.90
40287;DHT22;25998;46.604;13.610;2023-07-13T01:33:21;18.90;99.90
40287;DHT22;25998;46.604;13.610;2023-07-13T01:36:31;19.00;99.90
40287;DHT22;25998;46.604;13.610;2023-07-13T01:39:42;18.90;99.90
40287;DHT22;25998;46.604;13.610;2023-07-13T01:42:53;18.90;99.90
40287;DHT22;25998;46.604;13.610;2023-07-13T01:46:04;19.00;99.90
40287;DHT22;25998;46.604;13.610;2023-07-13T01:49:14;18.70;99.90
40287;DHT22;25998;46.604;13.610;2023-07-13T01:52:25;18.50;99.90
40287;DHT22;25998;46.604;13.610;2023-07-13T01:55:36;18.40;99.90
40287;DHT22;25998;46.604;13.610;2023-07-13T01:58:48;18.60;99.90
40287;DHT22;25998;46.604;13.610;2023-07-13T02:01:58;18.60;99.90
40287;DHT22;25998;46.604;13.610;2023-07-13T02:05:10;18.60;99.90
40287;DHT22;25998;46.604;13.610;2023-07-13T02:08:21;18.80;99.90
40287;DHT22;25998;46.604;13.610;2023-07-13T02:11:33;18.90;99.90
40287;DHT22;25998;46.604;13.610;2023-07-13T02:14:44;18.80;99.90
40287;DHT22;25998;46.604;13.610;2023-07-13T02:17:55;18.90;99.90
40287;DHT22;25998;46.604;13.610;2023-07-13T02:21:07;19.00;99.90
40287;DHT22;25998;46.604;13.610;2023-07-13T02:24:18;18.70;99.90
40287;DHT22;25998;46.604;13.610;2023-07-13T02:27:31;18.40;99.90
40287;DHT22;25998;46.604;13.610;2023-07-13T02:30:42;18.50;99.90
40287;DHT22;25998;46.604;13.610;2023-07-13T02:33:53;18.50;99.90
40287;DHT22;25998;46.604;13.610;2023-07-13T02:37:04;18.60;99.90
40287;DHT22;25998;46.604;13.610;2023-07-13T02:40:15;18.70;99.90
40287;DHT22;25998;46.604;13.610;2023-07-13T02:43:26;18.50;99.90
40287;DHT22;25998;46.604;13.610;2023-07-13T02:46:37;18.10;99.90
40287;DHT22;25998;46.604;13.610;2023-07-13T02:49:48;18.00;99.90
40287;DHT22;25998;46.604;13.610;2023-07-13T02:52:59;18.10;99.90
40287;DHT22;25998;46.604;13.610;2023-07-13T02:56:09;18.20;99.90
40287;DHT22;25998;46.604;13.610;2023-07-13T02:59:20;18.40;99.90
40287;DHT22;25998;46.604;13.610;2023-07-13T03:02:32;18.50;99.90
40287;DHT22;25998;46.604;13.610;2023-07-13T03:05:44;18.60;99.90
40287;DHT22;25998;46.604;13.610;2023-07-13T03:09:00;18.70;99.90
40287;DHT22;25998;46.604;13.610;2023-07-13T03:12:11;18.70;99.90
40287;DHT22;25998;46.604;13.610;2023-07-13T03:15:22;18.80;99.90
40287;DHT22;25998;46.604;13.610;2023-07-13T03:18:33;18.60;99.90
40287;DHT22;25998;46.604;13.610;2023-07-13T03:21:44;18.70;99.90
40287;DHT22;25998;46.604;13.610;2023-07-13T03:24:55;18.90;99.90
40287;DHT22;25998;46.604;13.610;2023-07-13T03:28:06;19.00;99.90
40287;DHT22;25998;46.604;13.610;2023-07-13T03:31:26;19.00;99.90
40287;DHT22;25998;46.604;13.610;2023-07-13T03:34:39;18.80;99.90
40287;DHT22;25998;46.604;13.610;2023-07-13T03:37:49;18.70;99.90
40287;DHT22;25998;46.604;13.610;2023-07-13T03:41:01;18.80;99.90
40287;DHT22;25998;46.604;13.610;2023-07-13T03:44:12;18.70;99.90
40287;DHT22;25998;46.604;13.610;2023-07-13T03:47:23;18.60;99.90
40287;DHT22;25998;46.604;13.610;2023-07-13T03:50:34;18.60;99.90
40287;DHT22;25998;46.604;13.610;2023-07-13T03:53:46;18.80;99.90
40287;DHT22;25998;46.604;13.610;2023-07-13T03:56:58;18.80;99.90
40287;DHT22;25998;46.604;13.610;2023-07-13T04:00:09;18.80;99.90
40287;DHT22;25998;46.604;13.610;2023-07-13T04:03:21;18.60;99.90
40287;DHT22;25998;46.604;13.610;2023-07-13T04:06:32;18.60;99.90
40287;DHT22;25998;46.604;13.610;2023-07-13T04:09:43;18.60;99.90
40287;DHT22;25998;46.604;13.610;2023-07-13T04:12:54;18.60;99.90
40287;DHT22;25998;46.604;13.610;2023-07-13T04:16:05;18.80;99.90
40287;DHT22;25998;46.604;13.610;2023-07-13T04:19:15;19.00;99.90
40287;DHT22;25998;46.604;13.610;2023-07-13T04:22:26;18.90;99.90
40287;DHT22;25998;46.604;13.610;2023-07-13T04:25:37;19.00;99.90
40287;DHT22;25998;46.604;13.610;2023-07-13T04:28:49;18.90;99.90
40287;DHT22;25998;46.604;13.610;2023-07-13T04:32:00;19.00;99.90
40287;DHT22;25998;46.604;13.610;2023-07-13T04:35:11;18.90;99.90
40287;DHT22;25998;46.604;13.610;2023-07-13T04:38:28;19.00;99.90
40287;DHT22;25998;46.604;13.610;2023-07-13T04:41:39;19.20;99.90
40287;DHT22;25998;46.604;13.610;2023-07-13T04:44:51;19.30;99.90
40287;DHT22;25998;46.604;13.610;2023-07-13T04:48:02;19.30;99.90
40287;DHT22;25998;46.604;13.610;2023-07-13T04:51:13;19.30;99.90
40287;DHT22;25998;46.604;13.610;2023-07-13T04:54:24;19.30;99.90
40287;DHT22;25998;46.604;13.610;2023-07-13T04:57:35;19.50;99.90
40287;DHT22;25998;46.604;13.610;2023-07-13T05:00:46;19.60;99.90
40287;DHT22;25998;46.604;13.610;2023-07-13T05:03:57;19.60;99.90
40287;DHT22;25998;46.604;13.610;2023-07-13T05:07:10;19.50;99.90
40287;DHT22;25998;46.604;13.610;2023-07-13T05:10:21;19.60;99.90
40287;DHT22;25998;46.604;13.610;2023-07-13T05:13:32;19.60;99.90
40287;DHT22;25998;46.604;13.610;2023-07-13T05:16:43;19.50;99.90
40287;DHT22;25998;46.604;13.610;2023-07-13T05:19:54;19.60;99.90
40287;DHT22;25998;46.604;13.610;2023-07-13T05:23:05;19.50;99.90
40287;DHT22;25998;46.604;13.610;2023-07-13T05:26:16;19.30;99.90
40287;DHT22;25998;46.604;13.610;2023-07-13T05:29:27;19.30;99.90
40287;DHT22;25998;46.604;13.610;2023-07-13T05:32:37;19.30;99.90
40287;DHT22;25998;46.604;13.610;2023-07-13T05:35:49;19.40;99.90
40287;DHT22;25998;46.604;13.610;2023-07-13T05:39:00;19.50;99.90
40287;DHT22;25998;46.604;13.610;2023-07-13T05:42:10;19.50;99.90
40287;DHT22;25998;46.604;13.610;2023-07-13T05:45:21;19.50;99.90
40287;DHT22;25998;46.604;13.610;2023-07-13T05:48:32;19.70;99.90
40287;DHT22;25998;46.604;13.610;2023-07-13T05:51:43;19.90;99.90
40287;DHT22;25998;46.604;13.610;2023-07-13T05:54:54;20.00;99.90
40287;DHT22;25998;46.604;13.610;2023-07-13T05:58:04;19.80;99.90
40287;DHT22;25998;46.604;13.610;2023-07-13T06:01:16;20.00;99.90
40287;DHT22;25998;46.604;13.610;2023-07-13T06:04:27;20.50;99.90
40287;DHT22;25998;46.604;13.610;2023-07-13T06:07:38;20.60;99.90
40287;DHT22;25998;46.604;13.610;2023-07-13T06:10:49;20.60;99.90
40287;DHT22;25998;46.604;13.610;2023-07-13T06:14:00;21.10;99.90
40287;DHT22;25998;46.604;13.610;2023-07-13T06:17:11;21.60;99.90
40287;DHT22;25998;46.604;13.610;2023-07-13T06:20:21;21.90;99.90
40287;DHT22;25998;46.604;13.610;2023-07-13T06:23:32;22.10;99.90
40287;DHT22;25998;46.604;13.610;2023-07-13T06:26:43;22.60;99.90
40287;DHT22;25998;46.604;13.610;2023-07-13T06:29:54;22.80;99.90
40287;DHT22;25998;46.604;13.610;2023-07-13T06:33:05;22.50;99.90
40287;DHT22;25998;46.604;13.610;2023-07-13T06:36:16;22.40;99.90
40287;DHT22;25998;46.604;13.610;2023-07-13T06:39:27;22.60;99.90
40287;DHT22;25998;46.604;13.610;2023-07-13T06:42:37;22.50;99.90
40287;DHT22;25998;46.604;13.610;2023-07-13T06:45:49;22.10;99.90
40287;DHT22;25998;46.604;13.610;2023-07-13T06:49:00;22.00;99.90
40287;DHT22;25998;46.604;13.610;2023-07-13T06:52:11;22.10;99.90
40287;DHT22;25998;46.604;13.610;2023-07-13T06:55:22;22.60;99.90
40287;DHT22;25998;46.604;13.610;2023-07-13T06:58:33;22.60;99.90
40287;DHT22;25998;46.604;13.610;2023-07-13T07:01:44;22.50;99.90
40287;DHT22;25998;46.604;13.610;2023-07-13T07:04:55;22.20;99.90
40287;DHT22;25998;46.604;13.610;2023-07-13T07:08:06;22.00;99.90
40287;DHT22;25998;46.604;13.610;2023-07-13T07:11:20;22.60;99.90
40287;DHT22;25998;46.604;13.610;2023-07-13T07:14:32;23.30;99.90
40287;DHT22;25998;46.604;13.610;2023-07-13T07:17:44;23.80;99.90
40287;DHT22;25998;46.604;13.610;2023-07-13T07:20:55;23.60;99.90
40287;DHT22;25998;46.604;13.610;2023-07-13T07:24:06;23.50;99.90
40287;DHT22;25998;46.604;13.610;2023-07-13T07:27:18;23.90;99.90
40287;DHT22;25998;46.604;13.610;2023-07-13T07:30:28;23.90;99.90
40287;DHT22;25998;46.604;13.610;2023-07-13T07:33:39;23.70;99.90
40287;DHT22;25998;46.604;13.610;2023-07-13T07:36:50;23.70;99.90
40287;DHT22;25998;46.604;13.610;2023-07-13T07:40:01;23.70;99.90
40287;DHT22;25998;46.604;13.610;2023-07-13T07:43:12;23.90;99.90
40287;DHT22;25998;46.604;13.610;2023-07-13T07:46:24;24.40;99.90
40287;DHT22;25998;46.604;13.610;2023-07-13T07:49:36;25.10;99.90
40287;DHT22;25998;46.604;13.610;2023-07-13T07:52:47;25.40;99.90
40287;DHT22;25998;46.604;13.610;2023-07-13T07:55:58;25.50;99.90
40287;DHT22;25998;46.604;13.610;2023-07-13T07:59:09;25.40;99.90
40287;DHT22;25998;46.604;13.610;2023-07-13T08:02:20;25.30;99.90
40287;DHT22;25998;46.604;13.610;2023-07-13T08:05:31;25.20;99.90
40287;DHT22;25998;46.604;13.610;2023-07-13T08:08:41;25.30;99.90
40287;DHT22;25998;46.604;13.610;2023-07-13T08:11:52;25.60;99.90
40287;DHT22;25998;46.604;13.610;2023-07-13T08:15:08;25.50;99.90
40287;DHT22;25998;46.604;13.610;2023-07-13T08:18:20;25.30;99.90
40287;DHT22;25998;46.604;13.610;2023-07-13T08:21:31;25.30;99.90
40287;DHT22;25998;46.604;13.610;2023-07-13T08:24:42;25.70;99.90
40287;DHT22;25998;46.604;13.610;2023-07-13T08:27:53;25.70;99.90
40287;DHT22;25998;46.604;13.610;2023-07-13T08:31:05;25.60;99.90
40287;DHT22;25998;46.604;13.610;2023-07-13T08:34:17;25.00;99.90
40287;DHT22;25998;46.604;13.610;2023-07-13T08:37:28;24.70;99.90
40287;DHT22;25998;46.604;13.610;2023-07-13T08:40:39;24.70;99.90
40287;DHT22;25998;46.604;13.610;2023-07-13T08:43:56;25.00;99.90
40287;DHT22;25998;46.604;13.610;2023-07-13T08:47:09;25.40;99.70
40287;DHT22;25998;46.604;13.610;2023-07-13T08:50:27;25.50;99.90
40287;DHT22;25998;46.604;13.610;2023-07-13T08:53:45;25.60;99.90
40287;DHT22;25998;46.604;13.610;2023-07-13T08:56:58;25.90;99.90
40287;DHT22;25998;46.604;13.610;2023-07-13T09:00:12;25.80;99.30
40287;DHT22;25998;46.604;13.610;2023-07-13T09:03:36;25.70;99.40
40287;DHT22;25998;46.604;13.610;2023-07-13T09:14:21;25.70;99.70
40287;DHT22;25998;46.604;13.610;2023-07-13T09:17:52;25.30;99.90
40287;DHT22;25998;46.604;13.610;2023-07-13T09:21:33;25.60;99.90
40287;DHT22;25998;46.604;13.610;2023-07-13T09:28:57;25.80;99.90
40287;DHT22;25998;46.604;13.610;2023-07-13T09:31:53;25.80;99.90
40287;DHT22;25998;46.604;13.610;2023-07-13T09:35:12;25.90;99.90
40287;DHT22;25998;46.604;13.610;2023-07-13T09:38:30;26.00;99.50
40287;DHT22;25998;46.604;13.610;2023-07-13T09:41:53;26.00;99.90
40287;DHT22;25998;46.604;13.610;2023-07-13T09:45:05;25.70;99.30
40287;DHT22;25998;46.604;13.610;2023-07-13T09:48:19;25.60;99.90
40287;DHT22;25998;46.604;13.610;2023-07-13T09:51:30;25.60;99.90
40287;DHT22;25998;46.604;13.610;2023-07-13T09:54:46;25.50;99.90
40287;DHT22;25998;46.604;13.610;2023-07-13T09:58:17;25.30;99.90
40287;DHT22;25998;46.604;13.610;2023-07-13T10:01:36;25.30;99.90
40287;DHT22;25998;46.604;13.610;2023-07-13T10:08:26;25.60;99.90
40287;DHT22;25998;46.604;13.610;2023-07-13T10:11:41;25.60;99.90
40287;DHT22;25998;46.604;13.610;2023-07-13T10:14:57;25.30;99.90
40287;DHT22;25998;46.604;13.610;2023-07-13T10:18:09;25.30;99.60
40287;DHT22;25998;46.604;13.610;2023-07-13T10:21:22;25.20;99.80
40287;DHT22;25998;46.604;13.610;2023-07-13T10:24:36;25.30;99.90
40287;DHT22;25998;46.604;13.610;2023-07-13T10:28:01;25.50;99.40
40287;DHT22;25998;46.604;13.610;2023-07-13T10:31:14;25.50;99.00
40287;DHT22;25998;46.604;13.610;2023-07-13T10:34:26;25.60;99.20
40287;DHT22;25998;46.604;13.610;2023-07-13T10:41:07;25.90;99.00
40287;DHT22;25998;46.604;13.610;2023-07-13T10:44:24;25.70;99.50
40287;DHT22;25998;46.604;13.610;2023-07-13T10:47:37;25.60;99.20
40287;DHT22;25998;46.604;13.610;2023-07-13T10:50:52;25.30;99.60
40287;DHT22;25998;46.604;13.610;2023-07-13T10:54:18;25.20;99.90
40287;DHT22;25998;46.604;13.610;2023-07-13T10:57:42;25.60;99.60
40287;DHT22;25998;46.604;13.610;2023-07-13T11:04:12;25.50;99.90
40287;DHT22;25998;46.604;13.610;2023-07-13T11:10:54;25.60;99.90
40287;DHT22;25998;46.604;13.610;2023-07-13T11:14:34;25.60;99.90
40287;DHT22;25998;46.604;13.610;2023-07-13T11:17:54;25.70;99.90
40287;DHT22;25998;46.604;13.610;2023-07-13T11:21:29;25.40;99.50
40287;DHT22;25998;46.604;13.610;2023-07-13T11:31:22;24.90;99.90
40287;DHT22;25998;46.604;13.610;2023-07-13T11:34:36;24.70;99.90
40287;DHT22;25998;46.604;13.610;2023-07-13T11:37:48;24.70;99.90
40287;DHT22;25998;46.604;13.610;2023-07-13T11:41:10;24.90;99.90
40287;DHT22;25998;46.604;13.610;2023-07-13T11:44:25;25.10;99.90
40287;DHT22;25998;46.604;13.610;2023-07-13T11:47:42;25.20;99.90
40287;DHT22;25998;46.604;13.610;2023-07-13T11:51:02;25.30;99.90
40287;DHT22;25998;46.604;13.610;2023-07-13T11:54:30;25.30;99.90
40287;DHT22;25998;46.604;13.610;2023-07-13T11:57:49;25.30;99.90
40287;DHT22;25998;46.604;13.610;2023-07-13T12:01:02;25.50;99.90
40287;DHT22;25998;46.604;13.610;2023-07-13T12:04:35;25.60;99.90
40287;DHT22;25998;46.604;13.610;2023-07-13T12:07:46;25.80;99.90
40287;DHT22;25998;46.604;13.610;2023-07-13T12:11:00;25.90;99.90
40287;DHT22;25998;46.604;13.610;2023-07-13T12:14:15;26.20;99.90
40287;DHT22;25998;46.604;13.610;2023-07-13T12:17:27;26.30;99.90
40287;DHT22;25998;46.604;13.610;2023-07-13T12:20:39;26.50;99.90
40287;DHT22;25998;46.604;13.610;2023-07-13T12:23:50;26.20;99.90
40287;DHT22;25998;46.604;13.610;2023-07-13T12:27:03;26.40;99.90
40287;DHT22;25998;46.604;13.610;2023-07-13T12:30:30;26.60;99.90
40287;DHT22;25998;46.604;13.610;2023-07-13T12:33:44;26.60;99.90
40287;DHT22;25998;46.604;13.610;2023-07-13T12:37:02;26.80;99.90
40287;DHT22;25998;46.604;13.610;2023-07-13T12:40:16;26.50;99.90
40287;DHT22;25998;46.604;13.610;2023-07-13T12:43:34;26.30;99.90
40287;DHT22;25998;46.604;13.610;2023-07-13T12:46:59;26.20;99.90
40287;DHT22;25998;46.604;13.610;2023-07-13T12:50:21;26.30;99.90
40287;DHT22;25998;46.604;13.610;2023-07-13T12:53:41;26.50;99.90
40287;DHT22;25998;46.604;13.610;2023-07-13T12:56:53;26.80;99.80
40287;DHT22;25998;46.604;13.610;2023-07-13T13:03:39;26.20;99.90
40287;DHT22;25998;46.604;13.610;2023-07-13T13:07:01;26.10;99.90
40287;DHT22;25998;46.604;13.610;2023-07-13T13:10:13;26.00;99.90
40287;DHT22;25998;46.604;13.610;2023-07-13T13:13:25;25.60;99.90
40287;DHT22;25998;46.604;13.610;2023-07-13T13:16:48;25.40;99.90
40287;DHT22;25998;46.604;13.610;2023-07-13T13:20:01;25.50;99.90
40287;DHT22;25998;46.604;13.610;2023-07-13T13:23:17;25.40;99.90
40287;DHT22;25998;46.604;13.610;2023-07-13T13:26:29;25.30;99.90
40287;DHT22;25998;46.604;13.610;2023-07-13T13:29:41;25.30;99.80
40287;DHT22;25998;46.604;13.610;2023-07-13T13:32:52;25.10;99.90
40287;DHT22;25998;46.604;13.610;2023-07-13T13:36:03;25.00;98.60
40287;DHT22;25998;46.604;13.610;2023-07-13T13:39:25;24.80;99.20
40287;DHT22;25998;46.604;13.610;2023-07-13T13:42:38;24.70;99.90
40287;DHT22;25998;46.604;13.610;2023-07-13T13:45:50;24.70;99.10
40287;DHT22;25998;46.604;13.610;2023-07-13T13:49:01;24.50;99.90
40287;DHT22;25998;46.604;13.610;2023-07-13T13:52:12;24.50;99.90
40287;DHT22;25998;46.604;13.610;2023-07-13T13:55:23;24.10;99.90
40287;DHT22;25998;46.604;13.610;2023-07-13T13:58:34;23.90;99.90
40287;DHT22;25998;46.604;13.610;2023-07-13T14:01:46;24.10;99.90
40287;DHT22;25998;46.604;13.610;2023-07-13T14:05:01;24.20;99.90
40287;DHT22;25998;46.604;13.610;2023-07-13T14:08:18;24.20;99.90
40287;DHT22;25998;46.604;13.610;2023-07-13T14:11:31;24.40;99.90
40287;DHT22;25998;46.604;13.610;2023-07-13T14:14:43;24.50;99.90
40287;DHT22;25998;46.604;13.610;2023-07-13T14:17:55;24.70;99.90
40287;DHT22;25998;46.604;13.610;2023-07-13T14:21:24;24.80;99.90
40287;DHT22;25998;46.604;13.610;2023-07-13T14:24:35;24.80;99.90
40287;DHT22;25998;46.604;13.610;2023-07-13T14:27:48;24.70;99.90
40287;DHT22;25998;46.604;13.610;2023-07-13T14:30:59;24.50;99.90
40287;DHT22;25998;46.604;13.610;2023-07-13T14:34:11;24.30;99.90
40287;DHT22;25998;46.604;13.610;2023-07-13T14:37:23;24.30;99.90
40287;DHT22;25998;46.604;13.610;2023-07-13T14:40:34;24.10;99.90
40287;DHT22;25998;46.604;13.610;2023-07-13T14:43:45;24.20;99.90
40287;DHT22;25998;46.604;13.610;2023-07-13T14:46:58;24.00;99.90
40287;DHT22;25998;46.604;13.610;2023-07-13T14:50:21;23.80;99.90
40287;DHT22;25998;46.604;13.610;2023-07-13T14:53:32;23.70;99.90
40287;DHT22;25998;46.604;13.610;2023-07-13T14:56:43;23.60;99.90
40287;DHT22;25998;46.604;13.610;2023-07-13T14:59:53;23.40;99.90
40287;DHT22;25998;46.604;13.610;2023-07-13T15:03:04;23.10;99.90
40287;DHT22;25998;46.604;13.610;2023-07-13T15:06:16;22.90;99.90
40287;DHT22;25998;46.604;13.610;2023-07-13T15:09:29;22.60;99.90
40287;DHT22;25998;46.604;13.610;2023-07-13T15:12:40;22.40;99.90
40287;DHT22;25998;46.604;13.610;2023-07-13T15:15:53;22.40;99.90
40287;DHT22;25998;46.604;13.610;2023-07-13T15:19:04;22.40;99.90
40287;DHT22;25998;46.604;13.610;2023-07-13T15:22:15;22.10;99.90
40287;DHT22;25998;46.604;13.610;2023-07-13T15:25:28;22.10;99.90
40287;DHT22;25998;46.604;13.610;2023-07-13T15:28:39;22.20;99.90
40287;DHT22;25998;46.604;13.610;2023-07-13T15:31:50;22.00;99.90
40287;DHT22;25998;46.604;13.610;2023-07-13T15:35:00;21.80;99.90
40287;DHT22;25998;46.604;13.610;2023-07-13T15:38:20;21.50;99.90
40287;DHT22;25998;46.604;13.610;2023-07-13T15:41:32;21.40;99.90
40287;DHT22;25998;46.604;13.610;2023-07-13T15:44:43;21.40;99.90
40287;DHT22;25998;46.604;13.610;2023-07-13T15:47:54;21.20;99.90
40287;DHT22;25998;46.604;13.610;2023-07-13T15:51:11;20.90;99.90
40287;DHT22;25998;46.604;13.610;2023-07-13T15:54:23;20.80;99.90
40287;DHT22;25998;46.604;13.610;2023-07-13T15:57:35;20.80;99.90
40287;DHT22;25998;46.604;13.610;2023-07-13T16:00:45;20.10;99.90
40287;DHT22;25998;46.604;13.610;2023-07-13T16:03:56;19.60;99.90
40287;DHT22;25998;46.604;13.610;2023-07-13T16:07:12;19.50;99.90
40287;DHT22;25998;46.604;13.610;2023-07-13T16:10:32;19.60;99.90
40287;DHT22;25998;46.604;13.610;2023-07-13T16:13:44;19.80;99.90
40287;DHT22;25998;46.604;13.610;2023-07-13T16:16:59;19.80;99.90
40287;DHT22;25998;46.604;13.610;2023-07-13T16:20:11;20.00;99.90
40287;DHT22;25998;46.604;13.610;2023-07-13T16:23:23;20.00;99.90
40287;DHT22;25998;46.604;13.610;2023-07-13T16:26:36;20.20;99.90
40287;DHT22;25998;46.604;13.610;2023-07-13T16:29:52;20.10;99.90
40287;DHT22;25998;46.604;13.610;2023-07-13T16:33:04;20.10;99.90
40287;DHT22;25998;46.604;13.610;2023-07-13T16:36:17;20.10;99.90
40287;DHT22;25998;46.604;13.610;2023-07-13T16:39:28;20.10;99.90
40287;DHT22;25998;46.604;13.610;2023-07-13T16:42:40;20.00;99.90
40287;DHT22;25998;46.604;13.610;2023-07-13T16:45:51;19.80;99.90
40287;DHT22;25998;46.604;13.610;2023-07-13T16:49:02;19.70;99.90
40287;DHT22;25998;46.604;13.610;2023-07-13T16:52:15;19.80;99.90
40287;DHT22;25998;46.604;13.610;2023-07-13T16:55:30;19.80;99.90
40287;DHT22;25998;46.604;13.610;2023-07-13T16:58:40;19.90;99.90
40287;DHT22;25998;46.604;13.610;2023-07-13T17:01:51;19.80;99.90
40287;DHT22;25998;46.604;13.610;2023-07-13T17:05:04;19.80;99.90
40287;DHT22;25998;46.604;13.610;2023-07-13T17:11:31;20.10;99.90
40287;DHT22;25998;46.604;13.610;2023-07-13T17:14:42;20.50;99.90
40287;DHT22;25998;46.604;13.610;2023-07-13T17:17:53;20.60;99.90
40287;DHT22;25998;46.604;13.610;2023-07-13T17:21:18;20.70;99.90
40287;DHT22;25998;46.604;13.610;2023-07-13T17:24:29;20.60;99.90
40287;DHT22;25998;46.604;13.610;2023-07-13T17:27:42;20.50;99.90
40287;DHT22;25998;46.604;13.610;2023-07-13T17:30:54;20.50;99.90
40287;DHT22;25998;46.604;13.610;2023-07-13T17:34:13;20.50;99.90
40287;DHT22;25998;46.604;13.610;2023-07-13T17:37:24;20.40;99.90
40287;DHT22;25998;46.604;13.610;2023-07-13T17:40:35;20.20;99.90
40287;DHT22;25998;46.604;13.610;2023-07-13T17:43:46;20.20;99.90
40287;DHT22;25998;46.604;13.610;2023-07-13T17:47:00;20.10;99.90
40287;DHT22;25998;46.604;13.610;2023-07-13T17:50:14;20.10;99.90
40287;DHT22;25998;46.604;13.610;2023-07-13T17:53:27;19.90;99.90
40287;DHT22;25998;46.604;13.610;2023-07-13T17:56:38;20.10;99.90
40287;DHT22;25998;46.604;13.610;2023-07-13T17:59:49;20.20;99.90
40287;DHT22;25998;46.604;13.610;2023-07-13T18:03:08;20.20;99.90
40287;DHT22;25998;46.604;13.610;2023-07-13T18:06:34;20.20;99.90
40287;DHT22;25998;46.604;13.610;2023-07-13T18:09:47;20.30;99.90
40287;DHT22;25998;46.604;13.610;2023-07-13T18:12:58;20.30;99.90
40287;DHT22;25998;46.604;13.610;2023-07-13T18:16:22;20.20;99.90
40287;DHT22;25998;46.604;13.610;2023-07-13T18:19:39;19.90;99.90
40287;DHT22;25998;46.604;13.610;2023-07-13T18:22:52;19.90;99.90
40287;DHT22;25998;46.604;13.610;2023-07-13T18:26:08;20.00;99.90
40287;DHT22;25998;46.604;13.610;2023-07-13T18:29:20;20.10;99.90
40287;DHT22;25998;46.604;13.610;2023-07-13T18:32:31;20.00;99.90
40287;DHT22;25998;46.604;13.610;2023-07-13T18:35:42;20.00;99.90
40287;DHT22;25998;46.604;13.610;2023-07-13T18:38:53;20.00;99.90
40287;DHT22;25998;46.604;13.610;2023-07-13T18:42:09;20.00;99.90
40287;DHT22;25998;46.604;13.610;2023-07-13T18:45:20;20.00;99.90
40287;DHT22;25998;46.604;13.610;2023-07-13T18:48:32;20.00;99.90
40287;DHT22;25998;46.604;13.610;2023-07-13T18:51:43;19.90;99.90
40287;DHT22;25998;46.604;13.610;2023-07-13T18:54:54;19.90;99.90
40287;DHT22;25998;46.604;13.610;2023-07-13T18:58:05;19.70;99.90
40287;DHT22;25998;46.604;13.610;2023-07-13T19:01:35;19.60;99.90
40287;DHT22;25998;46.604;13.610;2023-07-13T19:04:47;19.70;99.90
40287;DHT22;25998;46.604;13.610;2023-07-13T19:08:00;19.80;99.90
40287;DHT22;25998;46.604;13.610;2023-07-13T19:11:15;19.80;99.90
40287;DHT22;25998;46.604;13.610;2023-07-13T19:14:27;19.80;99.90
40287;DHT22;25998;46.604;13.610;2023-07-13T19:17:38;19.70;99.90
40287;DHT22;25998;46.604;13.610;2023-07-13T19:20:52;19.40;99.90
40287;DHT22;25998;46.604;13.610;2023-07-13T19:24:04;19.40;99.90
40287;DHT22;25998;46.604;13.610;2023-07-13T19:27:18;19.30;99.90
40287;DHT22;25998;46.604;13.610;2023-07-13T19:30:29;19.30;99.90
40287;DHT22;25998;46.604;13.610;2023-07-13T19:33:40;19.20;99.90
40287;DHT22;25998;46.604;13.610;2023-07-13T19:37:01;19.20;99.90
40287;DHT22;25998;46.604;13.610;2023-07-13T19:40:23;19.30;99.90
40287;DHT22;25998;46.604;13.610;2023-07-13T19:43:34;19.20;99.90
40287;DHT22;25998;46.604;13.610;2023-07-13T19:46:47;19.10;99.90
40287;DHT22;25998;46.604;13.610;2023-07-13T19:49:58;19.00;99.90
40287;DHT22;25998;46.604;13.610;2023-07-13T19:53:15;19.10;99.90
40287;DHT22;25998;46.604;13.610;2023-07-13T19:56:28;19.10;99.90
40287;DHT22;25998;46.604;13.610;2023-07-13T19:59:39;18.80;99.90
40287;DHT22;25998;46.604;13.610;2023-07-13T20:02:50;18.80;99.90
40287;DHT22;25998;46.604;13.610;2023-07-13T20:06:01;18.70;99.90
40287;DHT22;25998;46.604;13.610;2023-07-13T20:09:18;18.70;99.90
40287;DHT22;25998;46.604;13.610;2023-07-13T20:12:29;18.60;99.90
40287;DHT22;25998;46.604;13.610;2023-07-13T20:15:41;18.50;99.90
40287;DHT22;25998;46.604;13.610;2023-07-13T20:18:52;18.50;99.90
40287;DHT22;25998;46.604;13.610;2023-07-13T20:22:03;18.50;99.90
40287;DHT22;25998;46.604;13.610;2023-07-13T20:25:16;18.40;99.90
40287;DHT22;25998;46.604;13.610;2023-07-13T20:28:27;18.70;99.90
40287;DHT22;25998;46.604;13.610;2023-07-13T20:31:38;18.70;99.90
40287;DHT22;25998;46.604;13.610;2023-07-13T20:34:49;18.40;99.90
40287;DHT22;25998;46.604;13.610;2023-07-13T20:38:01;18.30;99.90
40287;DHT22;25998;46.604;13.610;2023-07-13T20:41:12;18.20;99.90
40287;DHT22;25998;46.604;13.610;2023-07-13T20:44:23;18.40;99.90
40287;DHT22;25998;46.604;13.610;2023-07-13T20:47:34;18.30;99.90
40287;DHT22;25998;46.604;13.610;2023-07-13T20:50:46;18.20;99.90
40287;DHT22;25998;46.604;13.610;2023-07-13T20:53:58;18.30;99.90
40287;DHT22;25998;46.604;13.610;2023-07-13T20:57:09;18.10;99.90
40287;DHT22;25998;46.604;13.610;2023-07-13T21:00:26;18.20;99.90